sensor_id;sensor_type;location;lat;lon;timestamp;pressure;altitude;pressure_sealevel;temperature;humidity
55347;BME280;41218;55.700;38.270;2022-10-12T00:02:04;100059.69;;;0.87;68.56
55347;BME280;41218;55.700;38.270;2022-10-12T00:07:04;100068.47;;;0.84;68.46
55347;BME280;41218;55.700;38.270;2022-10-12T00:12:05;100067.72;;;0.78;68.46
55347;BME280;41218;55.700;38.270;2022-10-12T00:17:05;100065.00;;;0.78;68.44
55347;BME280;41218;55.700;38.270;2022-10-12T00:22:06;100062.91;;;0.75;68.54
55347;BME280;41218;55.700;38.270;2022-10-12T00:27:07;100050.66;;;0.73;68.46
55347;BME280;41218;55.700;38.270;2022-10-12T00:32:07;100061.03;;;0.71;68.61
55347;BME280;41218;55.700;38.270;2022-10-12T00:37:08;100049.97;;;0.67;68.33
55347;BME280;41218;55.700;38.270;2022-10-12T00:42:12;100033.88;;;0.52;68.33
55347;BME280;41218;55.700;38.270;2022-10-12T00:52:28;100030.13;;;0.48;68.44
55347;BME280;41218;55.700;38.270;2022-10-12T00:57:30;100043.44;;;0.49;68.33
55347;BME280;41218;55.700;38.270;2022-10-12T01:02:32;100049.09;;;0.53;68.44
55347;BME280;41218;55.700;38.270;2022-10-12T01:07:33;100031.31;;;0.42;68.20
55347;BME280;41218;55.700;38.270;2022-10-12T01:12:34;100042.13;;;0.47;68.48
55347;BME280;41218;55.700;38.270;2022-10-12T01:28:17;100026.75;;;0.37;68.39
55347;BME280;41218;55.700;38.270;2022-10-12T01:33:27;100024.63;;;0.34;68.42
55347;BME280;41218;55.700;38.270;2022-10-12T01:43:41;100027.94;;;0.31;68.47
55347;BME280;41218;55.700;38.270;2022-10-12T01:48:45;100026.09;;;0.26;68.25
55347;BME280;41218;55.700;38.270;2022-10-12T02:04:47;100020.22;;;0.19;68.52
55347;BME280;41218;55.700;38.270;2022-10-12T02:09:51;100002.16;;;0.09;68.49
55347;BME280;41218;55.700;38.270;2022-10-12T02:14:56;100010.25;;;0.14;68.41
55347;BME280;41218;55.700;38.270;2022-10-12T02:20:00;100003.16;;;0.13;68.63
55347;BME280;41218;55.700;38.270;2022-10-12T02:25:04;100007.59;;;0.09;68.80
55347;BME280;41218;55.700;38.270;2022-10-12T02:30:06;100010.59;;;0.08;68.82
55347;BME280;41218;55.700;38.270;2022-10-12T02:35:48;100016.34;;;0.06;68.41
55347;BME280;41218;55.700;38.270;2022-10-12T02:40:54;100010.66;;;0.03;68.73
55347;BME280;41218;55.700;38.270;2022-10-12T02:45:57;100013.97;;;-0.01;68.32
55347;BME280;41218;55.700;38.270;2022-10-12T02:51:00;100012.13;;;-0.05;68.31
55347;BME280;41218;55.700;38.270;2022-10-12T02:56:05;100018.88;;;-0.03;68.22
55347;BME280;41218;55.700;38.270;2022-10-12T03:01:06;100016.75;;;-0.06;68.31
55347;BME280;41218;55.700;38.270;2022-10-12T03:06:07;100013.22;;;-0.06;68.50
55347;BME280;41218;55.700;38.270;2022-10-12T03:11:11;100021.69;;;-0.08;68.69
55347;BME280;41218;55.700;38.270;2022-10-12T03:16:11;100016.00;;;-0.11;68.69
55347;BME280;41218;55.700;38.270;2022-10-12T03:21:12;100012.50;;;-0.12;68.45
55347;BME280;41218;55.700;38.270;2022-10-12T03:26:13;100012.25;;;-0.15;68.49
55347;BME280;41218;55.700;38.270;2022-10-12T03:31:13;100018.28;;;-0.18;68.31
55347;BME280;41218;55.700;38.270;2022-10-12T03:36:14;100016.94;;;-0.21;68.20
55347;BME280;41218;55.700;38.270;2022-10-12T03:41:14;100017.22;;;-0.23;68.23
55347;BME280;41218;55.700;38.270;2022-10-12T03:46:15;100021.63;;;-0.27;68.43
55347;BME280;41218;55.700;38.270;2022-10-12T03:51:15;100014.88;;;-0.29;68.32
55347;BME280;41218;55.700;38.270;2022-10-12T03:56:16;100012.75;;;-0.32;68.49
55347;BME280;41218;55.700;38.270;2022-10-12T04:01:16;100011.41;;;-0.35;68.55
55347;BME280;41218;55.700;38.270;2022-10-12T04:06:17;100006.81;;;-0.34;68.69
55347;BME280;41218;55.700;38.270;2022-10-12T04:11:17;100010.63;;;-0.35;68.45
55347;BME280;41218;55.700;38.270;2022-10-12T04:16:19;100008.78;;;-0.40;68.46
55347;BME280;41218;55.700;38.270;2022-10-12T04:21:21;100005.47;;;-0.37;68.36
55347;BME280;41218;55.700;38.270;2022-10-12T04:26:23;100002.81;;;-0.42;68.78
55347;BME280;41218;55.700;38.270;2022-10-12T04:31:24;100013.94;;;-0.38;68.54
55347;BME280;41218;55.700;38.270;2022-10-12T04:36:25;99999.13;;;-0.51;68.35
55347;BME280;41218;55.700;38.270;2022-10-12T04:41:26;100025.06;;;-0.40;68.28
55347;BME280;41218;55.700;38.270;2022-10-12T04:46:27;100028.31;;;-0.38;68.67
55347;BME280;41218;55.700;38.270;2022-10-12T04:51:28;100018.84;;;-0.41;68.23
55347;BME280;41218;55.700;38.270;2022-10-12T04:56:28;100031.25;;;-0.34;68.49
55347;BME280;41218;55.700;38.270;2022-10-12T05:01:29;100029.63;;;-0.35;68.60
55347;BME280;41218;55.700;38.270;2022-10-12T05:06:29;100006.88;;;-0.39;68.36
55347;BME280;41218;55.700;38.270;2022-10-12T05:11:30;100017.59;;;-0.29;68.56
55347;BME280;41218;55.700;38.270;2022-10-12T05:16:31;100024.59;;;-0.23;68.41
55347;BME280;41218;55.700;38.270;2022-10-12T05:21:32;100019.66;;;-0.21;68.56
55347;BME280;41218;55.700;38.270;2022-10-12T05:26:33;100024.22;;;-0.16;68.51
55347;BME280;41218;55.700;38.270;2022-10-12T05:31:33;100019.53;;;-0.11;68.38
55347;BME280;41218;55.700;38.270;2022-10-12T05:36:34;100012.69;;;-0.08;68.25
55347;BME280;41218;55.700;38.270;2022-10-12T05:41:34;100012.06;;;0.00;68.49
55347;BME280;41218;55.700;38.270;2022-10-12T05:46:35;100006.31;;;0.02;68.41
55347;BME280;41218;55.700;38.270;2022-10-12T05:51:35;100010.81;;;0.11;68.48
55347;BME280;41218;55.700;38.270;2022-10-12T05:56:37;100005.00;;;0.18;68.54
55347;BME280;41218;55.700;38.270;2022-10-12T06:01:38;100008.16;;;0.25;68.73
55347;BME280;41218;55.700;38.270;2022-10-12T06:06:39;100001.56;;;0.31;68.62
55347;BME280;41218;55.700;38.270;2022-10-12T06:11:39;100020.06;;;0.48;68.84
55347;BME280;41218;55.700;38.270;2022-10-12T06:16:40;100013.06;;;0.61;68.73
55347;BME280;41218;55.700;38.270;2022-10-12T06:21:40;100020.44;;;0.74;69.18
55347;BME280;41218;55.700;38.270;2022-10-12T06:26:41;100012.84;;;0.90;69.28
55347;BME280;41218;55.700;38.270;2022-10-12T06:31:41;100010.16;;;1.04;69.91
55347;BME280;41218;55.700;38.270;2022-10-12T06:36:42;100003.41;;;1.15;70.03
55347;BME280;41218;55.700;38.270;2022-10-12T06:41:42;100009.78;;;1.38;70.31
55347;BME280;41218;55.700;38.270;2022-10-12T06:46:43;100002.31;;;1.58;70.68
55347;BME280;41218;55.700;38.270;2022-10-12T06:51:43;99992.91;;;1.78;70.75
55347;BME280;41218;55.700;38.270;2022-10-12T06:56:45;99993.88;;;1.96;70.85
55347;BME280;41218;55.700;38.270;2022-10-12T07:01:45;99995.06;;;2.17;70.79
55347;BME280;41218;55.700;38.270;2022-10-12T07:06:46;99989.94;;;2.38;70.93
55347;BME280;41218;55.700;38.270;2022-10-12T07:11:46;99997.22;;;2.66;71.64
55347;BME280;41218;55.700;38.270;2022-10-12T07:16:47;99995.75;;;2.91;71.11
55347;BME280;41218;55.700;38.270;2022-10-12T07:21:47;99993.81;;;3.23;71.54
55347;BME280;41218;55.700;38.270;2022-10-12T07:26:49;99991.53;;;3.56;71.72
55347;BME280;41218;55.700;38.270;2022-10-12T07:31:50;99999.63;;;3.87;71.64
55347;BME280;41218;55.700;38.270;2022-10-12T07:36:50;100000.34;;;4.10;71.33
55347;BME280;41218;55.700;38.270;2022-10-12T07:41:51;99995.69;;;4.28;71.37
55347;BME280;41218;55.700;38.270;2022-10-12T07:46:52;99989.72;;;4.44;71.51
55347;BME280;41218;55.700;38.270;2022-10-12T07:51:53;99989.22;;;4.59;71.46
55347;BME280;41218;55.700;38.270;2022-10-12T07:56:53;99996.94;;;4.83;71.52
55347;BME280;41218;55.700;38.270;2022-10-12T08:01:54;99993.97;;;5.06;71.65
55347;BME280;41218;55.700;38.270;2022-10-12T08:06:54;99976.28;;;5.33;70.98
55347;BME280;41218;55.700;38.270;2022-10-12T08:11:55;99981.81;;;5.62;70.86
55347;BME280;41218;55.700;38.270;2022-10-12T08:16:55;99976.03;;;5.85;70.35
55347;BME280;41218;55.700;38.270;2022-10-12T08:21:56;99983.78;;;6.13;70.49
55347;BME280;41218;55.700;38.270;2022-10-12T08:26:56;99973.88;;;6.41;69.51
55347;BME280;41218;55.700;38.270;2022-10-12T08:31:57;99969.06;;;6.72;69.01
55347;BME280;41218;55.700;38.270;2022-10-12T08:36:57;99971.41;;;6.94;68.72
55347;BME280;41218;55.700;38.270;2022-10-12T08:57:18;99953.66;;;7.90;66.44
55347;BME280;41218;55.700;38.270;2022-10-12T09:07:48;99947.84;;;8.32;64.92
55347;BME280;41218;55.700;38.270;2022-10-12T09:17:56;99947.25;;;8.67;63.92
55347;BME280;41218;55.700;38.270;2022-10-12T09:23:11;99944.97;;;8.85;62.93
55347;BME280;41218;55.700;38.270;2022-10-12T09:28:28;99950.16;;;9.02;62.62
55347;BME280;41218;55.700;38.270;2022-10-12T09:33:42;99946.16;;;9.16;61.96
55347;BME280;41218;55.700;38.270;2022-10-12T09:38:47;99939.66;;;9.24;62.22
55347;BME280;41218;55.700;38.270;2022-10-12T09:43:52;99940.81;;;9.39;61.63
55347;BME280;41218;55.700;38.270;2022-10-12T09:49:00;99945.88;;;9.53;60.47
55347;BME280;41218;55.700;38.270;2022-10-12T09:54:02;99945.50;;;9.70;60.54
55347;BME280;41218;55.700;38.270;2022-10-12T09:59:06;99939.59;;;9.88;60.00
55347;BME280;41218;55.700;38.270;2022-10-12T10:04:24;99946.00;;;10.11;59.13
55347;BME280;41218;55.700;38.270;2022-10-12T10:09:34;99939.34;;;10.32;59.18
55347;BME280;41218;55.700;38.270;2022-10-12T10:14:35;99940.53;;;10.50;59.19
55347;BME280;41218;55.700;38.270;2022-10-12T10:19:36;99928.44;;;10.58;58.85
55347;BME280;41218;55.700;38.270;2022-10-12T10:24:36;99936.25;;;10.76;58.62
55347;BME280;41218;55.700;38.270;2022-10-12T10:29:39;99945.56;;;10.87;57.99
55347;BME280;41218;55.700;38.270;2022-10-12T10:34:41;99943.78;;;10.98;57.72
55347;BME280;41218;55.700;38.270;2022-10-12T10:39:47;99938.75;;;11.04;56.98
55347;BME280;41218;55.700;38.270;2022-10-12T10:44:51;99942.88;;;11.14;56.70
55347;BME280;41218;55.700;38.270;2022-10-12T10:49:57;99940.97;;;11.18;56.26
55347;BME280;41218;55.700;38.270;2022-10-12T10:55:15;99949.81;;;11.27;55.61
55347;BME280;41218;55.700;38.270;2022-10-12T11:00:20;99945.56;;;11.33;56.04
55347;BME280;41218;55.700;38.270;2022-10-12T11:05:37;99949.25;;;11.41;54.89
55347;BME280;41218;55.700;38.270;2022-10-12T11:10:52;99951.66;;;11.42;52.81
55347;BME280;41218;55.700;38.270;2022-10-12T11:21:44;99950.91;;;11.46;53.87
55347;BME280;41218;55.700;38.270;2022-10-12T11:26:50;99950.50;;;11.43;53.96
55347;BME280;41218;55.700;38.270;2022-10-12T11:32:00;99950.91;;;11.46;53.96
55347;BME280;41218;55.700;38.270;2022-10-12T11:37:15;99954.13;;;11.48;53.52
55347;BME280;41218;55.700;38.270;2022-10-12T11:42:41;99959.25;;;11.49;53.29
55347;BME280;41218;55.700;38.270;2022-10-12T11:47:42;99947.75;;;11.47;54.30
55347;BME280;41218;55.700;38.270;2022-10-12T11:52:49;99942.22;;;11.47;53.93
55347;BME280;41218;55.700;38.270;2022-10-12T11:57:52;99951.09;;;11.56;54.43
55347;BME280;41218;55.700;38.270;2022-10-12T12:13:38;99956.78;;;11.67;54.36
55347;BME280;41218;55.700;38.270;2022-10-12T12:19:10;99952.84;;;11.68;53.76
55347;BME280;41218;55.700;38.270;2022-10-12T12:24:15;99961.09;;;11.65;53.87
55347;BME280;41218;55.700;38.270;2022-10-12T12:29:25;99969.75;;;11.63;53.46
55347;BME280;41218;55.700;38.270;2022-10-12T12:34:27;99960.97;;;11.57;54.27
55347;BME280;41218;55.700;38.270;2022-10-12T12:39:32;99963.22;;;11.48;54.10
55347;BME280;41218;55.700;38.270;2022-10-12T12:49:51;99973.44;;;11.44;54.07
55347;BME280;41218;55.700;38.270;2022-10-12T13:00:25;100001.16;;;11.25;55.26
55347;BME280;41218;55.700;38.270;2022-10-12T13:21:46;100003.56;;;10.64;56.47
55347;BME280;41218;55.700;38.270;2022-10-12T13:27:10;100017.78;;;10.62;56.53
55347;BME280;41218;55.700;38.270;2022-10-12T13:37:40;100008.44;;;10.51;57.19
55347;BME280;41218;55.700;38.270;2022-10-12T13:42:40;100020.59;;;10.47;57.26
55347;BME280;41218;55.700;38.270;2022-10-12T13:47:41;100019.28;;;10.40;57.58
55347;BME280;41218;55.700;38.270;2022-10-12T13:52:51;100029.50;;;10.40;57.70
55347;BME280;41218;55.700;38.270;2022-10-12T13:57:52;100029.13;;;10.22;57.87
55347;BME280;41218;55.700;38.270;2022-10-12T14:03:00;100035.69;;;10.17;58.21
55347;BME280;41218;55.700;38.270;2022-10-12T14:08:06;100049.44;;;10.14;58.62
55347;BME280;41218;55.700;38.270;2022-10-12T14:13:16;100051.25;;;10.06;58.93
55347;BME280;41218;55.700;38.270;2022-10-12T14:18:38;100051.06;;;9.99;59.26
55347;BME280;41218;55.700;38.270;2022-10-12T14:23:42;100050.47;;;9.90;59.34
55347;BME280;41218;55.700;38.270;2022-10-12T14:28:44;100061.50;;;9.90;59.47
55347;BME280;41218;55.700;38.270;2022-10-12T14:33:44;100054.91;;;9.78;59.54
55347;BME280;41218;55.700;38.270;2022-10-12T14:38:47;100073.44;;;9.78;59.96
55347;BME280;41218;55.700;38.270;2022-10-12T14:49:17;100073.97;;;9.68;60.32
55347;BME280;41218;55.700;38.270;2022-10-12T14:54:19;100073.78;;;9.60;60.50
55347;BME280;41218;55.700;38.270;2022-10-12T14:59:20;100084.03;;;9.60;60.49
55347;BME280;41218;55.700;38.270;2022-10-12T15:04:20;100097.28;;;9.54;60.92
55347;BME280;41218;55.700;38.270;2022-10-12T15:09:21;100101.81;;;9.47;61.19
55347;BME280;41218;55.700;38.270;2022-10-12T15:14:21;100099.31;;;9.41;61.50
55347;BME280;41218;55.700;38.270;2022-10-12T15:19:22;100105.47;;;9.35;61.70
55347;BME280;41218;55.700;38.270;2022-10-12T15:24:22;100105.00;;;9.33;61.92
55347;BME280;41218;55.700;38.270;2022-10-12T15:29:23;100109.25;;;9.30;62.10
55347;BME280;41218;55.700;38.270;2022-10-12T15:34:24;100110.78;;;9.28;62.26
55347;BME280;41218;55.700;38.270;2022-10-12T15:39:25;100117.34;;;9.23;62.59
55347;BME280;41218;55.700;38.270;2022-10-12T15:44:26;100116.34;;;9.15;62.85
55347;BME280;41218;55.700;38.270;2022-10-12T15:49:27;100118.66;;;9.13;63.00
55347;BME280;41218;55.700;38.270;2022-10-12T15:54:27;100132.78;;;9.12;63.34
55347;BME280;41218;55.700;38.270;2022-10-12T15:59:28;100119.50;;;9.01;63.91
55347;BME280;41218;55.700;38.270;2022-10-12T16:04:28;100130.19;;;9.03;63.52
55347;BME280;41218;55.700;38.270;2022-10-12T16:09:29;100127.75;;;9.01;63.75
55347;BME280;41218;55.700;38.270;2022-10-12T16:14:29;100124.91;;;8.98;63.82
55347;BME280;41218;55.700;38.270;2022-10-12T16:19:30;100143.84;;;8.99;64.01
55347;BME280;41218;55.700;38.270;2022-10-12T16:24:30;100133.78;;;8.91;64.01
55347;BME280;41218;55.700;38.270;2022-10-12T16:29:31;100141.59;;;8.89;63.75
55347;BME280;41218;55.700;38.270;2022-10-12T16:34:31;100143.69;;;8.80;64.34
55347;BME280;41218;55.700;38.270;2022-10-12T16:39:32;100147.13;;;8.77;64.61
55347;BME280;41218;55.700;38.270;2022-10-12T16:44:32;100149.78;;;8.73;65.17
55347;BME280;41218;55.700;38.270;2022-10-12T16:49:33;100136.81;;;8.61;64.71
55347;BME280;41218;55.700;38.270;2022-10-12T16:54:34;100136.94;;;8.65;64.90
55347;BME280;41218;55.700;38.270;2022-10-12T16:59:34;100154.03;;;8.71;64.96
55347;BME280;41218;55.700;38.270;2022-10-12T17:04:35;100151.16;;;8.67;65.01
55347;BME280;41218;55.700;38.270;2022-10-12T17:09:35;100151.66;;;8.57;64.80
55347;BME280;41218;55.700;38.270;2022-10-12T17:14:36;100150.53;;;8.46;65.10
55347;BME280;41218;55.700;38.270;2022-10-12T17:19:37;100150.41;;;8.42;65.34
55347;BME280;41218;55.700;38.270;2022-10-12T17:24:41;100154.84;;;8.34;65.53
55347;BME280;41218;55.700;38.270;2022-10-12T17:29:42;100152.69;;;8.28;65.19
55347;BME280;41218;55.700;38.270;2022-10-12T17:34:43;100146.72;;;8.13;65.59
55347;BME280;41218;55.700;38.270;2022-10-12T17:39:45;100160.81;;;8.12;65.79
55347;BME280;41218;55.700;38.270;2022-10-12T17:44:48;100157.72;;;8.01;65.96
55347;BME280;41218;55.700;38.270;2022-10-12T17:49:48;100150.56;;;7.88;65.90
55347;BME280;41218;55.700;38.270;2022-10-12T17:54:49;100149.06;;;7.78;66.16
55347;BME280;41218;55.700;38.270;2022-10-12T17:59:50;100159.16;;;7.86;66.05
55347;BME280;41218;55.700;38.270;2022-10-12T18:04:51;100165.38;;;7.83;66.21
55347;BME280;41218;55.700;38.270;2022-10-12T18:09:51;100171.88;;;7.78;66.24
55347;BME280;41218;55.700;38.270;2022-10-12T18:14:52;100179.56;;;7.73;65.98
55347;BME280;41218;55.700;38.270;2022-10-12T18:19:53;100175.28;;;7.63;65.94
55347;BME280;41218;55.700;38.270;2022-10-12T18:24:54;100179.06;;;7.58;66.60
55347;BME280;41218;55.700;38.270;2022-10-12T18:29:54;100184.63;;;7.50;66.33
55347;BME280;41218;55.700;38.270;2022-10-12T18:34:55;100192.19;;;7.40;66.83
55347;BME280;41218;55.700;38.270;2022-10-12T18:39:56;100189.16;;;7.33;66.55
55347;BME280;41218;55.700;38.270;2022-10-12T18:44:57;100192.13;;;7.28;66.73
55347;BME280;41218;55.700;38.270;2022-10-12T18:49:57;100197.03;;;7.22;66.64
55347;BME280;41218;55.700;38.270;2022-10-12T18:54:58;100198.38;;;7.16;66.81
55347;BME280;41218;55.700;38.270;2022-10-12T18:59:59;100202.00;;;7.08;67.18
55347;BME280;41218;55.700;38.270;2022-10-12T19:04:59;100196.22;;;7.01;66.80
55347;BME280;41218;55.700;38.270;2022-10-12T19:10:02;100194.34;;;6.93;67.38
55347;BME280;41218;55.700;38.270;2022-10-12T19:15:06;100184.41;;;6.79;67.48
55347;BME280;41218;55.700;38.270;2022-10-12T19:20:07;100189.31;;;6.74;67.18
55347;BME280;41218;55.700;38.270;2022-10-12T19:25:08;100181.59;;;6.67;67.83
55347;BME280;41218;55.700;38.270;2022-10-12T19:30:09;100180.97;;;6.61;67.72
55347;BME280;41218;55.700;38.270;2022-10-12T19:35:09;100181.38;;;6.51;67.84
55347;BME280;41218;55.700;38.270;2022-10-12T19:40:10;100180.59;;;6.42;67.75
55347;BME280;41218;55.700;38.270;2022-10-12T19:45:13;100188.84;;;6.42;67.82
55347;BME280;41218;55.700;38.270;2022-10-12T19:50:14;100186.28;;;6.37;67.72
55347;BME280;41218;55.700;38.270;2022-10-12T19:55:14;100193.22;;;6.34;68.09
55347;BME280;41218;55.700;38.270;2022-10-12T20:00:17;100195.50;;;6.32;68.16
55347;BME280;41218;55.700;38.270;2022-10-12T20:05:17;100192.94;;;6.27;68.21
55347;BME280;41218;55.700;38.270;2022-10-12T20:10:18;100200.03;;;6.28;68.28
55347;BME280;41218;55.700;38.270;2022-10-12T20:15:18;100194.06;;;6.26;68.44
55347;BME280;41218;55.700;38.270;2022-10-12T20:20:19;100195.53;;;6.24;68.72
55347;BME280;41218;55.700;38.270;2022-10-12T20:25:21;100201.50;;;6.26;68.36
55347;BME280;41218;55.700;38.270;2022-10-12T20:30:21;100214.59;;;6.29;68.80
55347;BME280;41218;55.700;38.270;2022-10-12T20:35:22;100209.56;;;6.31;68.67
55347;BME280;41218;55.700;38.270;2022-10-12T20:40:22;100217.13;;;6.34;68.77
55347;BME280;41218;55.700;38.270;2022-10-12T20:45:24;100216.81;;;6.35;68.74
55347;BME280;41218;55.700;38.270;2022-10-12T20:50:24;100221.16;;;6.36;68.50
55347;BME280;41218;55.700;38.270;2022-10-12T20:55:25;100218.88;;;6.38;68.63
55347;BME280;41218;55.700;38.270;2022-10-12T21:00:25;100221.63;;;6.38;68.63
55347;BME280;41218;55.700;38.270;2022-10-12T21:05:26;100220.03;;;6.37;68.75
55347;BME280;41218;55.700;38.270;2022-10-12T21:10:26;100220.50;;;6.39;68.81
55347;BME280;41218;55.700;38.270;2022-10-12T21:15:27;100222.78;;;6.37;68.73
55347;BME280;41218;55.700;38.270;2022-10-12T21:20:27;100242.94;;;6.41;69.00
55347;BME280;41218;55.700;38.270;2022-10-12T21:25:28;100233.56;;;6.42;68.54
55347;BME280;41218;55.700;38.270;2022-10-12T21:30:28;100236.31;;;6.42;68.97
55347;BME280;41218;55.700;38.270;2022-10-12T21:35:29;100221.50;;;6.35;68.63
55347;BME280;41218;55.700;38.270;2022-10-12T21:40:30;100238.41;;;6.46;68.81
55347;BME280;41218;55.700;38.270;2022-10-12T21:45:31;100248.59;;;6.45;69.19
55347;BME280;41218;55.700;38.270;2022-10-12T21:50:32;100242.75;;;6.47;69.22
55347;BME280;41218;55.700;38.270;2022-10-12T21:55:33;100246.19;;;6.44;68.96
55347;BME280;41218;55.700;38.270;2022-10-12T22:00:33;100241.31;;;6.40;68.89
55347;BME280;41218;55.700;38.270;2022-10-12T22:05:41;100257.78;;;6.49;69.11
55347;BME280;41218;55.700;38.270;2022-10-12T22:10:41;100250.66;;;6.48;68.84
55347;BME280;41218;55.700;38.270;2022-10-12T22:15:42;100253.09;;;6.50;69.21
55347;BME280;41218;55.700;38.270;2022-10-12T22:20:42;100265.66;;;6.51;69.16
55347;BME280;41218;55.700;38.270;2022-10-12T22:25:43;100264.56;;;6.52;69.41
55347;BME280;41218;55.700;38.270;2022-10-12T22:30:43;100262.94;;;6.51;69.44
55347;BME280;41218;55.700;38.270;2022-10-12T22:35:54;100271.63;;;6.53;69.91
55347;BME280;41218;55.700;38.270;2022-10-12T22:41:00;100271.63;;;6.53;69.98
55347;BME280;41218;55.700;38.270;2022-10-12T22:46:01;100277.59;;;6.55;69.59
55347;BME280;41218;55.700;38.270;2022-10-12T22:51:04;100279.72;;;6.58;69.73
55347;BME280;41218;55.700;38.270;2022-10-12T22:56:12;100282.94;;;6.60;70.20
55347;BME280;41218;55.700;38.270;2022-10-12T23:01:15;100287.78;;;6.63;69.92
55347;BME280;41218;55.700;38.270;2022-10-12T23:06:17;100279.53;;;6.63;70.02
55347;BME280;41218;55.700;38.270;2022-10-12T23:11:20;100277.28;;;6.65;70.20
55347;BME280;41218;55.700;38.270;2022-10-12T23:16:27;100284.50;;;6.70;70.38
55347;BME280;41218;55.700;38.270;2022-10-12T23:21:28;100286.94;;;6.71;70.36
55347;BME280;41218;55.700;38.270;2022-10-12T23:26:29;100291.28;;;6.72;70.17
55347;BME280;41218;55.700;38.270;2022-10-12T23:31:30;100287.06;;;6.75;70.15
55347;BME280;41218;55.700;38.270;2022-10-12T23:36:31;100290.28;;;6.77;70.11
55347;BME280;41218;55.700;38.270;2022-10-12T23:41:32;100290.63;;;6.75;70.35
55347;BME280;41218;55.700;38.270;2022-10-12T23:46:32;100302.56;;;6.79;70.13
55347;BME280;41218;55.700;38.270;2022-10-12T23:51:33;100294.66;;;6.78;70.46
55347;BME280;41218;55.700;38.270;2022-10-12T23:56:33;100308.53;;;6.81;70.61
